PDT,Max TemperatureF,Mean TemperatureF,Min TemperatureF,Max Dew PointF,MeanDew PointF,Min DewpointF,Max Humidity, Mean Humidity, Min Humidity, Max Sea Level PressureIn, Mean Sea Level PressureIn, Min Sea Level PressureIn, Max VisibilityMiles, Mean VisibilityMiles, Min VisibilityMiles, Max Wind SpeedMPH, Mean Wind SpeedMPH, Max Gust SpeedMPH,PrecipitationIn, CloudCover, Events, WindDirDegrees
2011-10-1,75,65,55,52,46,41,86,59,31,29.89,29.81,29.74,10,10,8,24,10,33,0.03,7,Rain,186
2011-10-2,69,60,51,47,45,42,77,58,39,30.00,29.93,29.86,10,10,9,14,6,17,0.13,6,Rain,122
2011-10-3,68,59,50,46,42,39,77,57,37,29.85,29.80,29.75,10,10,10,15,6,23,T,7,,230
2011-10-4,54,51,47,48,45,39,100,86,71,29.78,29.70,29.55,10,10,6,13,7,18,0.05,7,Rain,156
2011-10-5,52,50,47,48,47,45,100,92,83,29.60,29.51,29.47,10,9,3,14,5,18,0.14,8,Rain,75
2011-10-6,48,47,45,47,46,44,100,97,93,29.88,29.75,29.60,7,3,0,15,10,17,0.10,8,Fog-Rain,219
2011-10-7,61,51,41,46,41,36,100,72,44,30.14,29.96,29.84,10,10,6,21,11,25,0.00,6,,242
2011-10-8,60,48,36,43,39,34,100,76,51,30.27,30.20,30.10,10,10,10,12,5,15,0.00,3,Fog,156
2011-10-9,56,48,40,44,42,39,96,81,66,30.11,30.03,29.86,10,9,3,9,4,12,0.01,6,Fog,56
2011-10-10,54,50,45,48,46,44,100,86,71,29.85,29.68,29.61,10,8,4,20,7,24,0.04,8,Rain,142
2011-10-11,61,55,48,47,42,37,86,64,42,30.00,29.78,29.62,10,10,10,33,19,41,0.04,7,Rain,211
2011-10-12,56,50,43,41,38,36,96,72,47,30.19,30.14,30.05,10,10,10,20,11,23,0.00,6,,215
2011-10-13,57,47,37,37,34,31,92,67,41,30.19,30.15,30.10,10,10,10,10,3,14,0.00,6,,157
2011-10-14,51,47,42,41,37,35,82,72,61,30.09,30.03,29.96,10,10,10,12,5,13,0.01,8,Rain,49
2011-10-15,57,47,36,42,37,29,100,68,35,30.12,30.07,29.99,10,8,0,8,2,10,T,5,Fog-Rain,43
2011-10-16,57,48,38,36,33,28,85,60,35,30.28,30.12,30.05,10,10,10,10,4,14,0.00,5,,353
2011-10-17,57,48,38,43,40,35,100,76,51,30.44,30.38,30.29,10,8,0,10,5,14,0.00,5,,136
2011-10-18,59,48,37,41,39,37,100,76,51,30.44,30.33,30.08,10,6,0,13,7,16,0.00,3,Fog,49
2011-10-19,61,51,41,42,39,37,89,67,44,30.06,30.00,29.95,10,10,9,13,6,17,0.00,4,,115
2011-10-20,59,52,44,45,43,41,93,73,53,30.10,30.05,30.01,10,10,8,16,8,20,0.00,7,,185
2011-10-21,59,51,43,47,44,40,96,77,57,30.18,30.15,30.09,10,10,9,23,10,26,T,6,Rain,182
2011-10-22,64,56,47,52,47,44,96,74,52,30.19,30.11,30.05,10,10,4,29,15,37,0.07,7,Rain,208
2011-10-23,57,46,35,47,39,30,100,69,38,30.14,30.08,30.00,10,10,10,18,9,23,0.00,6,,209
2011-10-24,53,43,32,37,31,21,100,65,30,30.25,30.10,29.97,10,8,0,17,5,22,0.00,4,Fog,266
2011-10-25,50,39,27,30,26,23,85,59,33,30.43,30.37,30.27,10,10,8,8,3,12,0.00,1,,230
2011-10-26,48,38,27,29,25,22,85,62,38,30.42,30.29,30.16,10,10,10,13,7,17,0.00,5,,173
2011-10-27,49,36,23,28,24,22,81,59,36,30.31,30.27,30.14,10,10,10,8,1,9,0.00,2,,152
2011-10-28,52,41,29,39,30,24,89,62,35,30.29,30.09,29.94,10,10,9,24,8,30,0.07,7,Rain,98
2011-10-29,51,42,32,38,34,31,100,74,48,30.29,30.20,29.98,10,10,9,15,5,18,0.00,5,Fog,206
2011-10-30,51,42,32,48,40,30,96,86,76,30.27,30.11,29.97,10,9,4,16,6,21,0.04,5,Fog-Rain,150
2011-10-31,52,43,34,43,28,19,89,59,29,30.28,30.14,29.97,10,10,10,20,10,25,0.00,3,,240